Aneth, UT

7:23 AM MST on January 27, 2015 (GMT -0700)
Blanding | Change Station
CLOSE
Current Station
Airport
Location: Blanding,
Elevation: 5866 ft
Nearby Weather Stations

Elev 5866 ft 37.58 °N, 109.48 °W | Updated 8 minutes ago

Clear
Clear
34 °F
Feels Like 34 °F
N
0
Wind Variable Wind from North

Today
High -- | Low -- °F
--% Chance of Precip.
Yesterday
High -- | Low -- °F
Precip. -- in
7:23 AM 5:36 PM
First Quarter, 54% visible
Pressure 30.41 in
Visibility 10.0 miles
Clouds Scattered Clouds 7500 ft
Scattered Clouds 8500 ft
Dew Point 26 °F
Humidity 73%
Rainfall 0.00 in
Snow Depth Not available.
UV 0 out of 12
Pollen 1.80 out of 12
Air Quality Not available.
Flu Activity Not available.
METAR KBDG 271415Z AUTO 00000KT 10SM SCT075 SCT085 01/M03 A3041 RMK AO1 T00091034

More Conditions Fewer Conditions

Pressure 30.41 in
Visibility 10.0 miles
Clouds Scattered Clouds 7500 ft
Scattered Clouds 8500 ft
Dew Point 26 °F
Humidity 73%
Rainfall 0.00 in
Snow Depth Not available.
UV 0 out of 12
Pollen 1.80 out of 12
Air Quality Not available.
Flu Activity Not available.
METAR KBDG 271415Z AUTO 00000KT 10SM SCT075 SCT085 01/M03 A3041 RMK AO1 T00091034

More Conditions Fewer Conditions

10-Day Weather Forecast

Almanac

Astronomy

Jan. 27, 2015 Rise Set
Actual Time
Civil Twilight
Nautical Twilight
Astronomical Twilight
Moon
Length of Visible Light
Length of Day
Tomorrow will be .
, % of the Moon is Illuminated

Today's Extremes

State Highs State Lows

Community

WunderPhotos

Upload Photos

1,790,648 photos uploaded!

WunderBlogs® & News

Nearby

Air Quality

  Air Quality AQ Index Pollutant
Not available.

Snow Depth

Station Depth Elevation

Earthquake Activity

City Distance Mag. Time & Date
Minimum magnitude displayed is 2.5.

Coastal Water Temperatures

Place Temperature

Nearby Weather Stations